PWSweather.com
Personal Weather Stations
Station Observations
TENMILE2
Watts Bar Lake, Ten Mile, TN 37880

Watts Bar LakeTen Mile, TN 37880

Lat: 35.686, Lon: -84.7068

Elevation: 767

Station Type: Davis Vue

http://www.wattsbarweather.org

Latest ConditionsUpdated 9:46:23 AM EDT Sunday, Jun 16, 2019
Currently Today's Max Today's Min Today's Average
Temperature 77.8°F25.4°C 78.3°F25.7°C 63.7°F17.6°C 67.6°F19.8°C
Dew Point 67.8°F19.9°C 69.6°F20.9°C 61.7°F16.5°C 63.7°F17.6°C
Winds 3.8 mph SSW6.1 kmh SSW 5.9 mph -9.5 kmh - - 0.8 mph 1.3 kmh
Wind Gusts 10.0 mph16.1 kmh 10.0 mph16.1 kmh - -
Humidity 71% 94% 71% 88%
Pressure 30.09 in1019.0 mb 30.10 in1019.3 mb 30.03 in1016.9 mb -
Hour Temp Dew Point Humidity Winds Wind Gusts Pressure Precip Precip Rate Daily Precip Total
09:46 AM 77.8°F25.4°C 67.8°F19.9°C 71% 3.8 mph SSW6.1 kmh SSW 10.0 mph16.1 kmh 30.09 in1019.0 mb 0.00 in0.0 mm 0.00 in0.0 mm 0.00 in0.0 mm
09:41 AM 78.3°F25.7°C 68.3°F20.2°C 71% 5.9 mph SSW9.5 kmh SSW 10.0 mph16.1 kmh 30.09 in1019.0 mb 0.00 in0.0 mm 0.00 in0.0 mm 0.00 in0.0 mm
09:36 AM 78.1°F25.6°C 68.1°F20.1°C 71% 3.8 mph S6.1 kmh S 7.5 mph12.1 kmh 30.09 in1019.0 mb 0.00 in0.0 mm 0.00 in0.0 mm 0.00 in0.0 mm
09:31 AM 77.8°F25.4°C 68.6°F20.3°C 73% 3.0 mph S4.8 kmh S 6.3 mph10.1 kmh 30.09 in1019.0 mb 0.00 in0.0 mm 0.00 in0.0 mm 0.00 in0.0 mm
09:26 AM 77.6°F25.3°C 69.6°F20.9°C 76% 2.2 mph SE3.5 kmh SE 6.0 mph9.7 kmh 30.09 in1019.0 mb 0.00 in0.0 mm 0.00 in0.0 mm 0.00 in0.0 mm
09:21 AM 76.9°F24.9°C 68.5°F20.3°C 75% 2.4 mph S3.9 kmh S 7.5 mph12.1 kmh 30.09 in1019.0 mb 0.00 in0.0 mm 0.00 in0.0 mm 0.00 in0.0 mm
09:16 AM 76.4°F24.7°C 68.1°F20.1°C 75% 2.0 mph S3.2 kmh S 7.5 mph12.1 kmh 30.09 in1019.0 mb 0.00 in0.0 mm 0.00 in0.0 mm 0.00 in0.0 mm
09:11 AM 75.7°F24.3°C 68.1°F20.1°C 77% 1.3 mph S2.1 kmh S 6.3 mph10.1 kmh 30.09 in1019.0 mb 0.00 in0.0 mm 0.00 in0.0 mm 0.00 in0.0 mm
09:06 AM 74.9°F23.8°C 67.7°F19.8°C 78% 3.0 mph S4.8 kmh S 7.5 mph12.1 kmh 30.10 in1019.3 mb 0.00 in0.0 mm 0.00 in0.0 mm 0.00 in0.0 mm
09:01 AM 74.2°F23.4°C 67.4°F19.7°C 79% 3.7 mph S6.0 kmh S 7.5 mph12.1 kmh 30.10 in1019.3 mb 0.00 in0.0 mm 0.00 in0.0 mm 0.00 in0.0 mm
08:56 AM 73.6°F23.1°C 67.1°F19.5°C 80% 2.9 mph SSW4.7 kmh SSW 5.0 mph8.0 kmh 30.10 in1019.3 mb 0.00 in0.0 mm 0.00 in0.0 mm 0.00 in0.0 mm
08:51 AM 73.3°F22.9°C 66.8°F19.3°C 80% 2.5 mph S4.0 kmh S 6.0 mph9.7 kmh 30.10 in1019.3 mb 0.00 in0.0 mm 0.00 in0.0 mm 0.00 in0.0 mm
08:46 AM 73.4°F23.0°C 66.9°F19.4°C 80% 2.2 mph SSE3.5 kmh SSE 6.0 mph9.7 kmh 30.10 in1019.3 mb 0.00 in0.0 mm 0.00 in0.0 mm 0.00 in0.0 mm
08:41 AM 73.1°F22.8°C 67.3°F19.6°C 82% 1.3 mph SSW2.1 kmh SSW 7.5 mph12.1 kmh 30.10 in1019.3 mb 0.00 in0.0 mm 0.00 in0.0 mm 0.00 in0.0 mm
08:36 AM 72.8°F22.7°C 66.7°F19.3°C 81% 3.7 mph SW6.0 kmh SW 7.5 mph12.1 kmh 30.10 in1019.3 mb 0.00 in0.0 mm 0.00 in0.0 mm 0.00 in0.0 mm
08:31 AM 72.7°F22.6°C 66.6°F19.2°C 81% 3.4 mph S5.5 kmh S 6.3 mph10.1 kmh 30.09 in1019.0 mb 0.00 in0.0 mm 0.00 in0.0 mm 0.00 in0.0 mm
08:26 AM 72.5°F22.5°C 66.4°F19.1°C 81% 3.3 mph S5.3 kmh S 5.0 mph8.0 kmh 30.10 in1019.3 mb 0.00 in0.0 mm 0.00 in0.0 mm 0.00 in0.0 mm
08:21 AM 71.9°F22.2°C 66.5°F19.2°C 83% 1.4 mph SE2.3 kmh SE 5.0 mph8.0 kmh 30.09 in1019.0 mb 0.00 in0.0 mm 0.00 in0.0 mm 0.00 in0.0 mm
08:16 AM 71.4°F21.9°C 66.4°F19.1°C 84% 1.6 mph SSE2.6 kmh SSE 3.8 mph6.1 kmh 30.09 in1019.0 mb 0.00 in0.0 mm 0.00 in0.0 mm 0.00 in0.0 mm
08:11 AM 71.0°F21.7°C 66.0°F18.9°C 84% 1.6 mph S2.6 kmh S 3.0 mph4.8 kmh 30.09 in1019.0 mb 0.00 in0.0 mm 0.00 in0.0 mm 0.00 in0.0 mm
08:06 AM 70.6°F21.4°C 66.2°F19.0°C 86% 1.3 mph SSE2.1 kmh SSE 4.0 mph6.4 kmh 30.09 in1019.0 mb 0.00 in0.0 mm 0.00 in0.0 mm 0.00 in0.0 mm
08:01 AM 70.2°F21.2°C 65.5°F18.6°C 85% 1.5 mph S2.4 kmh S 4.0 mph6.4 kmh 30.09 in1019.0 mb 0.00 in0.0 mm 0.00 in0.0 mm 0.00 in0.0 mm
07:56 AM 69.8°F21.0°C 65.4°F18.6°C 86% 1.7 mph S2.7 kmh S 5.0 mph8.0 kmh 30.09 in1019.0 mb 0.00 in0.0 mm 0.00 in0.0 mm 0.00 in0.0 mm
07:50 AM 69.5°F20.8°C 65.5°F18.6°C 87% 2.5 mph SSE4.0 kmh SSE 5.0 mph8.0 kmh 30.08 in1018.6 mb 0.00 in0.0 mm 0.00 in0.0 mm 0.00 in0.0 mm
07:45 AM 69.0°F20.6°C 65.3°F18.5°C 88% 2.5 mph S4.0 kmh S 5.0 mph8.0 kmh 30.08 in1018.6 mb 0.00 in0.0 mm 0.00 in0.0 mm 0.00 in0.0 mm
07:40 AM 68.5°F20.3°C 65.1°F18.4°C 89% 1.7 mph S2.7 kmh S 5.0 mph8.0 kmh 30.08 in1018.6 mb 0.00 in0.0 mm 0.00 in0.0 mm 0.00 in0.0 mm
07:35 AM 67.9°F19.9°C 65.2°F18.4°C 91% 2.4 mph S3.9 kmh S 3.8 mph6.1 kmh 30.08 in1018.6 mb 0.00 in0.0 mm 0.00 in0.0 mm 0.00 in0.0 mm
07:30 AM 67.2°F19.6°C 64.8°F18.2°C 92% 2.1 mph S3.4 kmh S 3.8 mph6.1 kmh 30.08 in1018.6 mb 0.00 in0.0 mm 0.00 in0.0 mm 0.00 in0.0 mm
07:25 AM 66.5°F19.2°C 64.4°F18.0°C 93% 2.0 mph SSE3.2 kmh SSE 3.8 mph6.1 kmh 30.08 in1018.6 mb 0.00 in0.0 mm 0.00 in0.0 mm 0.00 in0.0 mm
07:20 AM 66.1°F18.9°C 64.0°F17.8°C 93% Calm Calm -- 30.07 in1018.3 mb 0.00 in0.0 mm 0.00 in0.0 mm 0.00 in0.0 mm
07:15 AM 65.8°F18.8°C 64.0°F17.8°C 94% Calm Calm -- 30.07 in1018.3 mb 0.00 in0.0 mm 0.00 in0.0 mm 0.00 in0.0 mm
07:10 AM 65.4°F18.6°C 63.6°F17.6°C 94% Calm Calm -- 30.07 in1018.3 mb 0.00 in0.0 mm 0.00 in0.0 mm 0.00 in0.0 mm
07:05 AM 65.1°F18.4°C 63.3°F17.4°C 94% Calm Calm -- 30.07 in1018.3 mb 0.00 in0.0 mm 0.00 in0.0 mm 0.00 in0.0 mm
07:00 AM 64.9°F18.3°C 63.1°F17.3°C 94% Calm Calm -- 30.07 in1018.3 mb 0.00 in0.0 mm 0.00 in0.0 mm 0.00 in0.0 mm
06:55 AM 64.7°F18.2°C 62.9°F17.2°C 94% Calm Calm -- 30.08 in1018.6 mb 0.00 in0.0 mm 0.00 in0.0 mm 0.00 in0.0 mm
06:50 AM 64.6°F18.1°C 62.8°F17.1°C 94% Calm Calm -- 30.08 in1018.6 mb 0.00 in0.0 mm 0.00 in0.0 mm 0.00 in0.0 mm
06:45 AM 64.4°F18.0°C 62.6°F17.0°C 94% Calm Calm -- 30.07 in1018.3 mb 0.00 in0.0 mm 0.00 in0.0 mm 0.00 in0.0 mm
06:40 AM 64.3°F17.9°C 62.5°F16.9°C 94% Calm Calm -- 30.07 in1018.3 mb 0.00 in0.0 mm 0.00 in0.0 mm 0.00 in0.0 mm
06:35 AM 64.2°F17.9°C 62.4°F16.9°C 94% Calm Calm -- 30.07 in1018.3 mb 0.00 in0.0 mm 0.00 in0.0 mm 0.00 in0.0 mm
06:30 AM 64.1°F17.8°C 62.3°F16.8°C 94% Calm Calm -- 30.07 in1018.3 mb 0.00 in0.0 mm 0.00 in0.0 mm 0.00 in0.0 mm
06:25 AM 63.9°F17.7°C 62.1°F16.7°C 94% Calm Calm -- 30.07 in1018.3 mb 0.00 in0.0 mm 0.00 in0.0 mm 0.00 in0.0 mm
06:20 AM 63.7°F17.6°C 61.9°F16.6°C 94% Calm Calm -- 30.07 in1018.3 mb 0.00 in0.0 mm 0.00 in0.0 mm 0.00 in0.0 mm
06:15 AM 63.7°F17.6°C 61.9°F16.6°C 94% Calm Calm -- 30.07 in1018.3 mb 0.00 in0.0 mm 0.00 in0.0 mm 0.00 in0.0 mm
06:10 AM 63.7°F17.6°C 61.9°F16.6°C 94% Calm Calm -- 30.06 in1017.9 mb 0.00 in0.0 mm 0.00 in0.0 mm 0.00 in0.0 mm
06:05 AM 63.8°F17.7°C 61.7°F16.5°C 93% Calm Calm -- 30.06 in1017.9 mb 0.00 in0.0 mm 0.00 in0.0 mm 0.00 in0.0 mm
06:00 AM 63.9°F17.7°C 61.8°F16.6°C 93% Calm Calm -- 30.06 in1017.9 mb 0.00 in0.0 mm 0.00 in0.0 mm 0.00 in0.0 mm
05:55 AM 64.0°F17.8°C 61.9°F16.6°C 93% Calm Calm -- 30.05 in1017.6 mb 0.00 in0.0 mm 0.00 in0.0 mm 0.00 in0.0 mm
05:50 AM 64.2°F17.9°C 62.1°F16.7°C 93% Calm Calm -- 30.05 in1017.6 mb 0.00 in0.0 mm 0.00 in0.0 mm 0.00 in0.0 mm
05:45 AM 64.3°F17.9°C 62.2°F16.8°C 93% Calm Calm -- 30.06 in1017.9 mb 0.00 in0.0 mm 0.00 in0.0 mm 0.00 in0.0 mm
05:40 AM 64.4°F18.0°C 62.3°F16.8°C 93% Calm Calm -- 30.05 in1017.6 mb 0.00 in0.0 mm 0.00 in0.0 mm 0.00 in0.0 mm
05:35 AM 64.5°F18.1°C 62.4°F16.9°C 93% Calm Calm -- 30.05 in1017.6 mb 0.00 in0.0 mm 0.00 in0.0 mm 0.00 in0.0 mm
05:30 AM 64.6°F18.1°C 62.5°F16.9°C 93% Calm Calm -- 30.05 in1017.6 mb 0.00 in0.0 mm 0.00 in0.0 mm 0.00 in0.0 mm
05:25 AM 64.6°F18.1°C 62.5°F16.9°C 93% Calm Calm -- 30.05 in1017.6 mb 0.00 in0.0 mm 0.00 in0.0 mm 0.00 in0.0 mm
05:20 AM 64.5°F18.1°C 62.4°F16.9°C 93% Calm Calm -- 30.05 in1017.6 mb 0.00 in0.0 mm 0.00 in0.0 mm 0.00 in0.0 mm
05:15 AM 64.5°F18.1°C 62.4°F16.9°C 93% Calm Calm -- 30.05 in1017.6 mb 0.00 in0.0 mm 0.00 in0.0 mm 0.00 in0.0 mm
05:10 AM 64.5°F18.1°C 62.4°F16.9°C 93% Calm Calm -- 30.05 in1017.6 mb 0.00 in0.0 mm 0.00 in0.0 mm 0.00 in0.0 mm
05:05 AM 64.5°F18.1°C 62.1°F16.7°C 92% Calm Calm -- 30.05 in1017.6 mb 0.00 in0.0 mm 0.00 in0.0 mm 0.00 in0.0 mm
05:00 AM 64.5°F18.1°C 62.1°F16.7°C 92% Calm Calm -- 30.05 in1017.6 mb 0.00 in0.0 mm 0.00 in0.0 mm 0.00 in0.0 mm
04:55 AM 64.6°F18.1°C 62.2°F16.8°C 92% Calm Calm -- 30.05 in1017.6 mb 0.00 in0.0 mm 0.00 in0.0 mm 0.00 in0.0 mm
04:50 AM 64.7°F18.2°C 62.3°F16.8°C 92% Calm Calm -- 30.05 in1017.6 mb 0.00 in0.0 mm 0.00 in0.0 mm 0.00 in0.0 mm
04:45 AM 64.7°F18.2°C 62.3°F16.8°C 92% Calm Calm -- 30.05 in1017.6 mb 0.00 in0.0 mm 0.00 in0.0 mm 0.00 in0.0 mm
04:40 AM 64.8°F18.2°C 62.4°F16.9°C 92% Calm Calm -- 30.05 in1017.6 mb 0.00 in0.0 mm 0.00 in0.0 mm 0.00 in0.0 mm
04:35 AM 64.9°F18.3°C 62.2°F16.8°C 91% Calm Calm -- 30.03 in1016.9 mb 0.00 in0.0 mm 0.00 in0.0 mm 0.00 in0.0 mm
04:30 AM 65.1°F18.4°C 62.4°F16.9°C 91% Calm Calm -- 30.03 in1016.9 mb 0.00 in0.0 mm 0.00 in0.0 mm 0.00 in0.0 mm
04:25 AM 65.1°F18.4°C 62.4°F16.9°C 91% Calm Calm 1.0 mph1.6 kmh 30.03 in1016.9 mb 0.00 in0.0 mm 0.00 in0.0 mm 0.00 in0.0 mm
04:20 AM 65.2°F18.4°C 62.5°F16.9°C 91% Calm Calm 1.0 mph1.6 kmh 30.05 in1017.6 mb 0.00 in0.0 mm 0.00 in0.0 mm 0.00 in0.0 mm
04:15 AM 65.3°F18.5°C 62.6°F17.0°C 91% Calm Calm 1.3 mph2.1 kmh 30.05 in1017.6 mb 0.00 in0.0 mm 0.00 in0.0 mm 0.00 in0.0 mm
04:10 AM 65.4°F18.6°C 62.7°F17.1°C 91% 1.3 mph ENE2.1 kmh ENE 1.3 mph2.1 kmh 30.05 in1017.6 mb 0.00 in0.0 mm 0.00 in0.0 mm 0.00 in0.0 mm
04:05 AM 65.5°F18.6°C 62.8°F17.1°C 91% Calm Calm 1.3 mph2.1 kmh 30.05 in1017.6 mb 0.00 in0.0 mm 0.00 in0.0 mm 0.00 in0.0 mm
04:00 AM 65.5°F18.6°C 62.5°F16.9°C 90% Calm Calm 1.3 mph2.1 kmh 30.05 in1017.6 mb 0.00 in0.0 mm 0.00 in0.0 mm 0.00 in0.0 mm
03:55 AM 65.6°F18.7°C 62.6°F17.0°C 90% Calm Calm 1.3 mph2.1 kmh 30.03 in1016.9 mb 0.00 in0.0 mm 0.00 in0.0 mm 0.00 in0.0 mm
03:50 AM 65.6°F18.7°C 62.6°F17.0°C 90% Calm Calm 1.3 mph2.1 kmh 30.05 in1017.6 mb 0.00 in0.0 mm 0.00 in0.0 mm 0.00 in0.0 mm
03:45 AM 65.6°F18.7°C 62.6°F17.0°C 90% 1.3 mph ESE2.1 kmh ESE 1.3 mph2.1 kmh 30.05 in1017.6 mb 0.00 in0.0 mm 0.00 in0.0 mm 0.00 in0.0 mm
03:40 AM 65.7°F18.7°C 62.7°F17.1°C 90% Calm Calm 1.0 mph1.6 kmh 30.05 in1017.6 mb 0.00 in0.0 mm 0.00 in0.0 mm 0.00 in0.0 mm
03:35 AM 65.8°F18.8°C 62.8°F17.1°C 90% Calm Calm 1.3 mph2.1 kmh 30.05 in1017.6 mb 0.00 in0.0 mm 0.00 in0.0 mm 0.00 in0.0 mm
03:30 AM 65.8°F18.8°C 62.8°F17.1°C 90% Calm Calm 1.3 mph2.1 kmh 30.05 in1017.6 mb 0.00 in0.0 mm 0.00 in0.0 mm 0.00 in0.0 mm
03:25 AM 65.8°F18.8°C 62.8°F17.1°C 90% Calm Calm 1.3 mph2.1 kmh 30.05 in1017.6 mb 0.00 in0.0 mm 0.00 in0.0 mm 0.00 in0.0 mm
03:20 AM 65.6°F18.7°C 62.6°F17.0°C 90% 1.3 mph ENE2.1 kmh ENE 1.3 mph2.1 kmh 30.05 in1017.6 mb 0.00 in0.0 mm 0.00 in0.0 mm 0.00 in0.0 mm
03:15 AM 65.6°F18.7°C 62.6°F17.0°C 90% 1.3 mph ENE2.1 kmh ENE 1.3 mph2.1 kmh 30.05 in1017.6 mb 0.00 in0.0 mm 0.00 in0.0 mm 0.00 in0.0 mm
03:10 AM 65.6°F18.7°C 62.6°F17.0°C 90% 1.3 mph ENE2.1 kmh ENE 1.3 mph2.1 kmh 30.05 in1017.6 mb 0.00 in0.0 mm 0.00 in0.0 mm 0.00 in0.0 mm
03:05 AM 65.6°F18.7°C 62.3°F16.8°C 89% 1.3 mph ENE2.1 kmh ENE 1.3 mph2.1 kmh 30.06 in1017.9 mb 0.00 in0.0 mm 0.00 in0.0 mm 0.00 in0.0 mm
03:00 AM 65.8°F18.8°C 62.5°F16.9°C 89% Calm Calm 1.3 mph2.1 kmh 30.06 in1017.9 mb 0.00 in0.0 mm 0.00 in0.0 mm 0.00 in0.0 mm
02:55 AM 65.9°F18.8°C 62.6°F17.0°C 89% Calm Calm 1.3 mph2.1 kmh 30.06 in1017.9 mb 0.00 in0.0 mm 0.00 in0.0 mm 0.00 in0.0 mm
02:50 AM 65.8°F18.8°C 62.5°F16.9°C 89% 1.3 mph ENE2.1 kmh ENE 1.3 mph2.1 kmh 30.06 in1017.9 mb 0.00 in0.0 mm 0.00 in0.0 mm 0.00 in0.0 mm
02:45 AM 65.9°F18.8°C 62.6°F17.0°C 89% Calm Calm 1.3 mph2.1 kmh 30.06 in1017.9 mb 0.00 in0.0 mm 0.00 in0.0 mm 0.00 in0.0 mm
02:40 AM 66.0°F18.9°C 62.6°F17.0°C 89% 1.3 mph ENE2.1 kmh ENE 1.3 mph2.1 kmh 30.06 in1017.9 mb 0.00 in0.0 mm 0.00 in0.0 mm 0.00 in0.0 mm
02:34 AM 66.0°F18.9°C 62.6°F17.0°C 89% Calm Calm -- 30.07 in1018.3 mb 0.00 in0.0 mm 0.00 in0.0 mm 0.00 in0.0 mm
02:29 AM 66.1°F18.9°C 62.7°F17.1°C 89% Calm Calm -- 30.07 in1018.3 mb 0.00 in0.0 mm 0.00 in0.0 mm 0.00 in0.0 mm
02:24 AM 66.4°F19.1°C 63.0°F17.2°C 89% Calm Calm -- 30.07 in1018.3 mb 0.00 in0.0 mm 0.00 in0.0 mm 0.00 in0.0 mm
02:19 AM 66.7°F19.3°C 63.0°F17.2°C 88% Calm Calm 1.0 mph1.6 kmh 30.07 in1018.3 mb 0.00 in0.0 mm 0.00 in0.0 mm 0.00 in0.0 mm
02:14 AM 66.9°F19.4°C 62.9°F17.2°C 87% Calm Calm 1.3 mph2.1 kmh 30.07 in1018.3 mb 0.00 in0.0 mm 0.00 in0.0 mm 0.00 in0.0 mm
02:09 AM 67.2°F19.6°C 63.2°F17.3°C 87% Calm Calm 1.3 mph2.1 kmh 30.07 in1018.3 mb 0.00 in0.0 mm 0.00 in0.0 mm 0.00 in0.0 mm
02:04 AM 67.2°F19.6°C 63.2°F17.3°C 87% Calm Calm 1.3 mph2.1 kmh 30.07 in1018.3 mb 0.00 in0.0 mm 0.00 in0.0 mm 0.00 in0.0 mm
01:59 AM 67.2°F19.6°C 63.2°F17.3°C 87% Calm Calm 1.3 mph2.1 kmh 30.07 in1018.3 mb 0.00 in0.0 mm 0.00 in0.0 mm 0.00 in0.0 mm
01:54 AM 67.3°F19.6°C 63.0°F17.2°C 86% Calm Calm 1.3 mph2.1 kmh 30.07 in1018.3 mb 0.00 in0.0 mm 0.00 in0.0 mm 0.00 in0.0 mm
01:49 AM 67.6°F19.8°C 63.3°F17.4°C 86% Calm Calm 1.3 mph2.1 kmh 30.07 in1018.3 mb 0.00 in0.0 mm 0.00 in0.0 mm 0.00 in0.0 mm
01:44 AM 67.7°F19.8°C 63.0°F17.2°C 85% Calm Calm 1.0 mph1.6 kmh 30.07 in1018.3 mb 0.00 in0.0 mm 0.00 in0.0 mm 0.00 in0.0 mm
01:39 AM 68.0°F20.0°C 63.0°F17.2°C 84% Calm Calm 2.0 mph3.2 kmh 30.07 in1018.3 mb 0.00 in0.0 mm 0.00 in0.0 mm 0.00 in0.0 mm
01:34 AM 68.3°F20.2°C 63.3°F17.4°C 84% Calm Calm 2.0 mph3.2 kmh 30.07 in1018.3 mb 0.00 in0.0 mm 0.00 in0.0 mm 0.00 in0.0 mm
01:29 AM 68.5°F20.3°C 63.5°F17.5°C 84% 1.3 mph NE2.1 kmh NE 2.5 mph4.0 kmh 30.06 in1017.9 mb 0.00 in0.0 mm 0.00 in0.0 mm 0.00 in0.0 mm
01:24 AM 68.3°F20.2°C 63.3°F17.4°C 84% 1.6 mph NE2.6 kmh NE 2.5 mph4.0 kmh 30.06 in1017.9 mb 0.00 in0.0 mm 0.00 in0.0 mm 0.00 in0.0 mm
01:19 AM 68.2°F20.1°C 63.2°F17.3°C 84% Calm Calm 1.3 mph2.1 kmh 30.06 in1017.9 mb 0.00 in0.0 mm 0.00 in0.0 mm 0.00 in0.0 mm
01:14 AM 67.8°F19.9°C 63.1°F17.3°C 85% 1.3 mph E2.1 kmh E 1.3 mph2.1 kmh 30.06 in1017.9 mb 0.00 in0.0 mm 0.00 in0.0 mm 0.00 in0.0 mm
01:09 AM 67.5°F19.7°C 63.2°F17.3°C 86% 1.3 mph E2.1 kmh E 1.3 mph2.1 kmh 30.07 in1018.3 mb 0.00 in0.0 mm 0.00 in0.0 mm 0.00 in0.0 mm
01:04 AM 67.4°F19.7°C 63.1°F17.3°C 86% Calm Calm 1.3 mph2.1 kmh 30.07 in1018.3 mb 0.00 in0.0 mm 0.00 in0.0 mm 0.00 in0.0 mm
12:59 AM 67.3°F19.6°C 63.0°F17.2°C 86% 1.3 mph E2.1 kmh E 1.3 mph2.1 kmh 30.07 in1018.3 mb 0.00 in0.0 mm 0.00 in0.0 mm 0.00 in0.0 mm
12:54 AM 67.3°F19.6°C 63.0°F17.2°C 86% 1.3 mph E2.1 kmh E 1.3 mph2.1 kmh 30.07 in1018.3 mb 0.00 in0.0 mm 0.00 in0.0 mm 0.00 in0.0 mm
12:49 AM 67.3°F19.6°C 63.0°F17.2°C 86% 1.3 mph E2.1 kmh E 1.3 mph2.1 kmh 30.07 in1018.3 mb 0.00 in0.0 mm 0.00 in0.0 mm 0.00 in0.0 mm
12:44 AM 67.3°F19.6°C 63.0°F17.2°C 86% 1.3 mph E2.1 kmh E 1.3 mph2.1 kmh 30.07 in1018.3 mb 0.00 in0.0 mm 0.00 in0.0 mm 0.00 in0.0 mm
12:39 AM 67.3°F19.6°C 63.0°F17.2°C 86% Calm Calm 1.3 mph2.1 kmh 30.07 in1018.3 mb 0.00 in0.0 mm 0.00 in0.0 mm 0.00 in0.0 mm
12:34 AM 67.3°F19.6°C 63.0°F17.2°C 86% Calm Calm 1.3 mph2.1 kmh 30.08 in1018.6 mb 0.00 in0.0 mm 0.00 in0.0 mm 0.00 in0.0 mm
12:29 AM 67.5°F19.7°C 63.2°F17.3°C 86% 1.3 mph E2.1 kmh E 1.3 mph2.1 kmh 30.08 in1018.6 mb 0.00 in0.0 mm 0.00 in0.0 mm 0.00 in0.0 mm
12:24 AM 67.6°F19.8°C 63.3°F17.4°C 86% Calm Calm 1.3 mph2.1 kmh 30.07 in1018.3 mb 0.00 in0.0 mm 0.00 in0.0 mm 0.00 in0.0 mm
12:19 AM 67.8°F19.9°C 63.1°F17.3°C 85% Calm Calm -- 30.07 in1018.3 mb 0.00 in0.0 mm 0.00 in0.0 mm 0.00 in0.0 mm
12:14 AM 68.1°F20.1°C 63.1°F17.3°C 84% Calm Calm -- 30.07 in1018.3 mb 0.00 in0.0 mm 0.00 in0.0 mm 0.00 in0.0 mm
12:09 AM 68.4°F20.2°C 63.1°F17.3°C 83% Calm Calm -- 30.07 in1018.3 mb 0.00 in0.0 mm 0.00 in0.0 mm 0.00 in0.0 mm
12:04 AM 68.7°F20.4°C 63.4°F17.4°C 83% Calm Calm 1.0 mph1.6 kmh 30.07 in1018.3 mb 0.00 in0.0 mm 0.00 in0.0 mm 0.00 in0.0 mm